Time;durP1;ratioP1;P1;durP2;ratioP2;P2;SDS_P1;SDS_P2;PMS_P1;PMS_P2;Temp;Humidity;BMP_temperature;BMP_pressure;BME280_temperature;BME280_humidity;BME280_pressure;Samples;Min_cycle;Max_cycle;Signal;HPM_P1;HPM_P2
2021/12/18 00:00:49;;;;;;;;;;;3.30;99.90;;;;;;5030548;28;20326;-74
2021/12/18 00:03:15;;;;;;;;;;;3.40;99.90;;;;;;5032795;28;19936;-74
2021/12/18 00:05:41;;;;;;;;;;;3.40;99.90;;;;;;5035255;28;19905;-74
2021/12/18 00:08:07;;;;;;;;;;;3.30;99.90;;;;;;5033945;28;19905;-74
2021/12/18 00:10:33;;;;;;;;;;;3.50;99.90;;;;;;5033815;28;19909;-74
2021/12/18 00:13:00;;;;;;;;;;;3.50;99.90;;;;;;5035303;28;19939;-74
2021/12/18 00:15:26;;;;;;;;;;;3.40;99.90;;;;;;5017350;28;19920;-74
2021/12/18 00:17:52;;;;;;;;;;;3.30;99.90;;;;;;5033529;28;19905;-74
2021/12/18 00:20:18;;;;;;;;;;;3.00;99.90;;;;;;5034971;28;20422;-74
2021/12/18 00:22:44;;;;;;;;;;;2.90;99.90;;;;;;5033698;28;19912;-73
2021/12/18 00:25:10;;;;;;;;;;;3.10;99.90;;;;;;5033657;28;20051;-74
2021/12/18 00:27:36;;;;;;;;;;;3.50;99.90;;;;;;5017010;28;20378;-74
2021/12/18 00:30:04;;;;;;;;;;;3.50;99.90;;;;;;5033520;28;19956;-74
2021/12/18 00:32:29;;;;;;;;;;;3.60;99.90;;;;;;5033453;28;20415;-74
2021/12/18 00:34:55;;;;;;;;;;;3.50;99.90;;;;;;5034823;28;19947;-74
2021/12/18 00:37:21;;;;;;;;;;;3.50;99.90;;;;;;5034491;28;19959;-74
2021/12/18 00:39:58;;;;;;;;;;;3.30;99.90;;;;;;5034699;28;19912;-74
2021/12/18 00:42:40;;;;;;;;;;;3.30;99.90;;;;;;5034628;28;19959;-74
2021/12/18 00:45:07;;;;;;;;;;;3.20;99.90;;;;;;5034530;28;19944;-74
2021/12/18 00:47:33;;;;;;;;;;;3.30;99.90;;;;;;5033109;28;20003;-74
2021/12/18 00:49:59;;;;;;;;;;;3.30;99.90;;;;;;5046374;22;19957;-90
2021/12/18 00:52:24;;;;;;;;;;;3.30;99.90;;;;;;5003124;28;19898;-89
2021/12/18 00:54:51;;;;;;;;;;;3.40;99.90;;;;;;4992875;28;19961;-92
2021/12/18 00:57:16;;;;;;;;;;;3.40;99.90;;;;;;4978749;28;19906;-92
2021/12/18 00:59:42;;;;;;;;;;;3.50;99.90;;;;;;4978525;28;19913;-92
2021/12/18 01:02:09;;;;;;;;;;;3.60;99.90;;;;;;4978495;28;19924;-91
2021/12/18 01:04:35;;;;;;;;;;;3.60;99.90;;;;;;4978524;28;19906;-91
2021/12/18 01:07:01;;;;;;;;;;;3.40;99.90;;;;;;4978565;28;20438;-91
2021/12/18 01:09:47;;;;;;;;;;;3.30;99.90;;;;;;4978746;28;19905;-92
2021/12/18 01:12:13;;;;;;;;;;;3.40;99.90;;;;;;4979172;28;19953;-92
2021/12/18 01:22:48;;;;;;;;;;;3.30;99.90;;;;;;4994924;28;20417;-91
2021/12/18 01:25:17;;;;;;;;;;;3.20;99.90;;;;;;4979680;28;19949;-91
2021/12/18 01:27:43;;;;;;;;;;;3.30;99.90;;;;;;4978465;28;19907;-92
2021/12/18 01:30:09;;;;;;;;;;;3.40;99.90;;;;;;4977985;28;20281;-92
2021/12/18 01:32:35;;;;;;;;;;;3.40;99.90;;;;;;4979765;28;19956;-90
2021/12/18 01:35:01;;;;;;;;;;;3.50;99.90;;;;;;5002791;28;19901;-89
2021/12/18 01:37:27;;;;;;;;;;;3.60;99.90;;;;;;4992576;28;19917;-92
2021/12/18 01:39:53;;;;;;;;;;;3.60;99.90;;;;;;4978612;28;19912;-91
2021/12/18 01:52:45;;;;;;;;;;;3.40;99.90;;;;;;4994537;28;19905;-92
2021/12/18 01:55:11;;;;;;;;;;;3.30;99.90;;;;;;4979615;28;20394;-92
2021/12/18 01:57:38;;;;;;;;;;;3.20;99.90;;;;;;4979282;28;19910;-92
2021/12/18 02:00:14;;;;;;;;;;;3.30;99.90;;;;;;5002335;28;19905;-90
2021/12/18 02:02:39;;;;;;;;;;;3.30;99.90;;;;;;5003569;28;19893;-90
2021/12/18 02:05:05;;;;;;;;;;;3.30;99.90;;;;;;5002816;28;19965;-89
2021/12/18 02:07:31;;;;;;;;;;;3.20;99.90;;;;;;5002499;28;19929;-90
2021/12/18 02:12:28;;;;;;;;;;;3.10;99.90;;;;;;5018420;28;19894;-88
2021/12/18 02:20:36;;;;;;;;;;;3.10;99.90;;;;;;5004658;28;20425;-91
2021/12/18 02:23:01;;;;;;;;;;;2.90;99.90;;;;;;4988550;28;19914;-91
2021/12/18 02:25:30;;;;;;;;;;;3.00;99.90;;;;;;4979985;28;19979;-91
2021/12/18 02:27:56;;;;;;;;;;;3.00;99.90;;;;;;4977379;28;19910;-91
2021/12/18 02:30:22;;;;;;;;;;;2.90;99.90;;;;;;4977297;28;20327;-91
2021/12/18 02:32:48;;;;;;;;;;;2.90;99.90;;;;;;4977255;28;19906;-91
2021/12/18 02:35:28;;;;;;;;;;;2.80;99.90;;;;;;4977400;28;20001;-90
2021/12/18 02:38:12;;;;;;;;;;;2.70;99.90;;;;;;4977393;28;19941;-91
2021/12/18 02:43:13;;;;;;;;;;;3.10;99.90;;;;;;4993069;28;19998;-91
2021/12/18 02:45:39;;;;;;;;;;;3.30;99.90;;;;;;4977128;28;20394;-91
2021/12/18 02:48:04;;;;;;;;;;;3.40;99.90;;;;;;4977133;28;19912;-91
2021/12/18 02:50:30;;;;;;;;;;;3.50;99.90;;;;;;4976975;28;19953;-91
2021/12/18 02:52:56;;;;;;;;;;;3.50;99.90;;;;;;4976842;28;19957;-91
2021/12/18 02:55:22;;;;;;;;;;;3.60;99.90;;;;;;4976977;28;19905;-91
2021/12/18 02:57:47;;;;;;;;;;;3.70;99.90;;;;;;4976538;28;19906;-91
2021/12/18 03:00:13;;;;;;;;;;;3.50;99.90;;;;;;4976703;28;19906;-91
2021/12/18 03:02:42;;;;;;;;;;;3.30;99.90;;;;;;4976665;28;19909;-91
2021/12/18 03:05:10;;;;;;;;;;;3.20;99.90;;;;;;4976429;28;19905;-91
2021/12/18 03:07:36;;;;;;;;;;;3.00;99.90;;;;;;4976163;28;19913;-91
2021/12/18 03:24:21;;;;;;;;;;;2.90;99.90;;;;;;4955956;28;19906;-91
2021/12/18 03:26:47;;;;;;;;;;;2.90;99.90;;;;;;4975630;28;19910;-91
2021/12/18 03:29:13;;;;;;;;;;;2.80;99.90;;;;;;4976339;28;20295;-91
2021/12/18 03:31:39;;;;;;;;;;;2.80;99.90;;;;;;4976560;28;19917;-91
2021/12/18 03:34:04;;;;;;;;;;;2.80;99.90;;;;;;4978455;28;19913;-90
2021/12/18 03:36:30;;;;;;;;;;;2.70;99.90;;;;;;4977818;28;19941;-92
2021/12/18 03:38:55;;;;;;;;;;;2.60;99.90;;;;;;4978215;28;19910;-91
2021/12/18 03:41:21;;;;;;;;;;;2.90;99.90;;;;;;4979843;28;20330;-90
2021/12/18 03:43:47;;;;;;;;;;;3.00;99.90;;;;;;4994708;28;19969;-89
2021/12/18 03:46:12;;;;;;;;;;;3.00;99.90;;;;;;5004748;28;19924;-89
2021/12/18 03:48:38;;;;;;;;;;;3.00;99.90;;;;;;4985973;28;19962;-91
2021/12/18 03:51:04;;;;;;;;;;;3.00;99.90;;;;;;4979453;28;19921;-91
2021/12/18 03:53:29;;;;;;;;;;;3.10;99.90;;;;;;4979850;28;19909;-91
2021/12/18 03:55:55;;;;;;;;;;;3.20;99.90;;;;;;4979099;28;19909;-91
2021/12/18 03:58:21;;;;;;;;;;;3.20;99.90;;;;;;4979578;28;19909;-91
2021/12/18 04:00:46;;;;;;;;;;;3.00;99.90;;;;;;4979214;28;19958;-91
2021/12/18 04:03:12;;;;;;;;;;;3.00;99.90;;;;;;4979352;28;19906;-91
2021/12/18 04:05:38;;;;;;;;;;;3.00;99.90;;;;;;4979197;28;19906;-91
2021/12/18 04:08:10;;;;;;;;;;;2.90;99.90;;;;;;4979388;28;19997;-90
2021/12/18 04:10:37;;;;;;;;;;;3.00;99.90;;;;;;4979276;28;20402;-92
2021/12/18 04:13:25;;;;;;;;;;;;;;;;;;;;;
2021/12/18 04:15:59;;;;;;;;;;;2.90;99.90;;;;;;4995565;28;19909;-90
2021/12/18 04:22:10;;;;;;;;;;;3.30;99.90;;;;;;4984178;28;19912;-91
2021/12/18 04:31:33;;;;;;;;;;;3.40;99.90;;;;;;4980513;28;19956;-91
2021/12/18 04:47:26;;;;;;;;;;;3.10;99.90;;;;;;5003634;28;20326;-91
2021/12/18 04:50:03;;;;;;;;;;;3.00;99.90;;;;;;4983707;28;19914;-91
2021/12/18 04:59:05;;;;;;;;;;;3.20;99.90;;;;;;4994513;28;20359;-91
2021/12/18 05:08:57;;;;;;;;;;;3.20;99.90;;;;;;4937858;29;19914;-91
2021/12/18 05:11:50;;;;;;;;;;;3.30;99.90;;;;;;4904443;29;19910;-91
2021/12/18 05:14:22;;;;;;;;;;;3.10;99.90;;;;;;4909535;29;19906;-92
2021/12/18 05:16:48;;;;;;;;;;;3.00;99.90;;;;;;4922559;29;20372;-91
2021/12/18 05:19:14;;;;;;;;;;;3.00;99.90;;;;;;4937854;28;20000;-91
2021/12/18 05:21:39;;;;;;;;;;;3.10;99.90;;;;;;4978333;28;19957;-91
2021/12/18 05:24:05;;;;;;;;;;;3.30;99.90;;;;;;4978206;28;19906;-91
2021/12/18 05:26:31;;;;;;;;;;;3.40;99.90;;;;;;4977718;28;20298;-91
2021/12/18 05:28:57;;;;;;;;;;;3.30;99.90;;;;;;4978149;28;19917;-92
2021/12/18 05:31:22;;;;;;;;;;;3.30;99.90;;;;;;4979052;28;19909;-91
2021/12/18 05:33:52;;;;;;;;;;;3.30;99.90;;;;;;4980058;28;20259;-91
2021/12/18 05:36:51;;;;;;;;;;;3.30;99.90;;;;;;4977499;28;19912;-91
2021/12/18 05:39:17;;;;;;;;;;;3.20;99.90;;;;;;4977902;28;20259;-92
2021/12/18 05:41:42;;;;;;;;;;;3.20;99.90;;;;;;4977618;28;19956;-92
2021/12/18 05:44:08;;;;;;;;;;;3.20;99.90;;;;;;4977650;28;19913;-91
2021/12/18 05:46:34;;;;;;;;;;;3.00;99.90;;;;;;4977617;28;19948;-91
2021/12/18 05:49:00;;;;;;;;;;;2.90;99.90;;;;;;4977604;28;19912;-91
2021/12/18 05:51:26;;;;;;;;;;;2.80;99.90;;;;;;4977547;28;19921;-92
2021/12/18 05:53:51;;;;;;;;;;;2.90;99.90;;;;;;4977910;28;19910;-91
2021/12/18 05:56:17;;;;;;;;;;;3.00;99.90;;;;;;4977239;28;20582;-91
2021/12/18 05:58:44;;;;;;;;;;;3.10;99.90;;;;;;4977254;28;20367;-91
2021/12/18 06:01:10;;;;;;;;;;;3.10;99.90;;;;;;4976809;28;19912;-92
2021/12/18 06:03:36;;;;;;;;;;;3.10;99.90;;;;;;4977669;28;20462;-91
2021/12/18 06:06:01;;;;;;;;;;;3.20;99.90;;;;;;4977487;28;19960;-91
2021/12/18 06:08:31;;;;;;;;;;;3.30;99.90;;;;;;4977510;28;20007;-92
2021/12/18 06:11:03;;;;;;;;;;;3.40;99.90;;;;;;4977426;28;19909;-92
2021/12/18 06:13:29;;;;;;;;;;;3.30;99.90;;;;;;4977707;28;19957;-92
2021/12/18 06:15:55;;;;;;;;;;;3.30;99.90;;;;;;4978044;28;19906;-91
2021/12/18 06:18:20;;;;;;;;;;;3.10;99.90;;;;;;4976864;28;19906;-91
2021/12/18 06:20:46;;;;;;;;;;;3.10;99.90;;;;;;4989128;28;19901;-88
2021/12/18 06:23:11;;;;;;;;;;;2.90;99.90;;;;;;5002045;28;19894;-89
2021/12/18 06:25:37;;;;;;;;;;;2.80;99.90;;;;;;5001775;28;19924;-90
2021/12/18 06:28:03;;;;;;;;;;;2.90;99.90;;;;;;4989163;28;19910;-91
2021/12/18 06:30:28;;;;;;;;;;;2.90;99.90;;;;;;4977525;28;19960;-90
2021/12/18 06:32:54;;;;;;;;;;;2.80;99.90;;;;;;4978436;28;19949;-91
2021/12/18 06:35:20;;;;;;;;;;;2.60;99.90;;;;;;4980867;28;20004;-92
2021/12/18 06:37:45;;;;;;;;;;;2.60;99.90;;;;;;5001362;28;19907;-89
2021/12/18 06:40:11;;;;;;;;;;;2.80;99.90;;;;;;5011754;28;19964;-92
2021/12/18 06:42:38;;;;;;;;;;;2.80;99.90;;;;;;4978797;28;20009;-91
2021/12/18 06:45:04;;;;;;;;;;;2.70;99.90;;;;;;4976792;28;19905;-92
2021/12/18 06:47:29;;;;;;;;;;;2.40;99.90;;;;;;4977062;28;19906;-92
2021/12/18 06:50:15;;;;;;;;;;;2.50;99.90;;;;;;4974408;28;19940;-92
2021/12/18 06:52:41;;;;;;;;;;;2.80;99.90;;;;;;4982539;28;19944;-91
2021/12/18 06:55:07;;;;;;;;;;;2.80;99.90;;;;;;5000120;28;20382;-92
2021/12/18 06:57:32;;;;;;;;;;;2.80;99.90;;;;;;5037543;23;19916;-91
2021/12/18 06:59:58;;;;;;;;;;;2.80;99.90;;;;;;5039832;28;19897;-91
2021/12/18 07:02:24;;;;;;;;;;;2.70;99.90;;;;;;5040854;28;19897;-90
2021/12/18 07:04:51;;;;;;;;;;;2.50;99.90;;;;;;5038016;28;19909;-91
2021/12/18 07:07:17;;;;;;;;;;;2.40;99.90;;;;;;5024058;28;19905;-92
2021/12/18 07:09:43;;;;;;;;;;;2.40;99.90;;;;;;5011991;28;19928;-91
2021/12/18 07:12:10;;;;;;;;;;;2.40;99.90;;;;;;5001255;28;19909;-91
2021/12/18 07:14:36;;;;;;;;;;;2.30;99.90;;;;;;5003718;28;20000;-91
2021/12/18 07:17:02;;;;;;;;;;;2.30;99.90;;;;;;5003000;28;19905;-92
2021/12/18 07:19:27;;;;;;;;;;;2.40;99.90;;;;;;5002564;28;19913;-92
2021/12/18 07:21:53;;;;;;;;;;;2.40;99.90;;;;;;5002722;28;20411;-91
2021/12/18 07:24:19;;;;;;;;;;;2.70;99.90;;;;;;5012068;28;19912;-91
2021/12/18 07:26:44;;;;;;;;;;;2.60;99.90;;;;;;5037746;28;19905;-91
2021/12/18 07:29:10;;;;;;;;;;;2.80;99.90;;;;;;5038876;28;19904;-91
2021/12/18 07:31:35;;;;;;;;;;;2.90;99.90;;;;;;5040366;28;19953;-92
2021/12/18 07:34:01;;;;;;;;;;;2.60;99.90;;;;;;5056876;28;19897;-92
2021/12/18 07:36:27;;;;;;;;;;;2.60;99.90;;;;;;5045933;28;19905;-91
2021/12/18 07:38:52;;;;;;;;;;;2.70;99.90;;;;;;5039369;28;19905;-91
2021/12/18 07:41:18;;;;;;;;;;;2.70;99.90;;;;;;5038796;28;20393;-92
2021/12/18 07:43:43;;;;;;;;;;;2.60;99.90;;;;;;5003250;28;19906;-92
2021/12/18 07:46:09;;;;;;;;;;;2.50;99.90;;;;;;5002516;28;19909;-91
2021/12/18 07:48:35;;;;;;;;;;;2.60;99.90;;;;;;5002208;28;19971;-91
2021/12/18 07:51:00;;;;;;;;;;;2.70;99.90;;;;;;5002585;28;19939;-91
2021/12/18 07:53:29;;;;;;;;;;;2.50;99.90;;;;;;5006037;28;19905;-91
2021/12/18 07:55:55;;;;;;;;;;;2.60;99.90;;;;;;5027903;28;19941;-91
2021/12/18 07:58:21;;;;;;;;;;;2.50;99.90;;;;;;5023116;28;20377;-92
2021/12/18 08:00:46;;;;;;;;;;;2.60;99.90;;;;;;5038763;28;19962;-91
2021/12/18 08:03:12;;;;;;;;;;;2.60;99.90;;;;;;5018626;28;19952;-91
2021/12/18 08:05:41;;;;;;;;;;;2.70;99.90;;;;;;5018310;28;19909;-92
2021/12/18 08:08:09;;;;;;;;;;;2.70;99.90;;;;;;5020114;28;19906;-92
2021/12/18 08:10:40;;;;;;;;;;;2.80;99.90;;;;;;5018966;28;19910;-91
2021/12/18 08:13:13;;;;;;;;;;;2.70;99.90;;;;;;5019712;28;19905;-91
2021/12/18 08:15:41;;;;;;;;;;;2.70;99.90;;;;;;5017945;28;20347;-92
2021/12/18 08:18:07;;;;;;;;;;;2.80;99.90;;;;;;5017690;28;19928;-92
2021/12/18 08:20:34;;;;;;;;;;;2.80;99.90;;;;;;5019188;28;19905;-91
2021/12/18 08:23:02;;;;;;;;;;;2.80;99.90;;;;;;5018625;28;19964;-91
2021/12/18 08:25:32;;;;;;;;;;;3.00;99.90;;;;;;5017275;28;19941;-91
2021/12/18 08:28:01;;;;;;;;;;;2.90;99.90;;;;;;5022233;28;19916;-91
2021/12/18 08:30:30;;;;;;;;;;;2.90;99.90;;;;;;5037702;28;19916;-91
2021/12/18 08:33:00;;;;;;;;;;;2.80;99.90;;;;;;5038834;28;20397;-91
2021/12/18 08:35:32;;;;;;;;;;;2.80;99.90;;;;;;5037398;28;20728;-91
2021/12/18 08:38:01;;;;;;;;;;;2.70;99.90;;;;;;5036557;28;19905;-91
2021/12/18 08:40:36;;;;;;;;;;;2.30;99.90;;;;;;5037648;28;19905;-91
2021/12/18 08:43:02;;;;;;;;;;;2.40;99.90;;;;;;5038732;28;19905;-91
2021/12/18 08:45:28;;;;;;;;;;;2.40;99.90;;;;;;5036553;28;19905;-91
2021/12/18 08:47:57;;;;;;;;;;;2.50;99.90;;;;;;5024998;28;19905;-91
2021/12/18 08:50:29;;;;;;;;;;;2.60;99.90;;;;;;5031797;28;20000;-91
2021/12/18 08:53:06;;;;;;;;;;;2.80;99.90;;;;;;5018753;28;19906;-91
2021/12/18 08:55:40;;;;;;;;;;;2.70;99.90;;;;;;5022470;28;19909;-91
2021/12/18 08:58:06;;;;;;;;;;;2.70;99.90;;;;;;5022030;28;19913;-92
2021/12/18 09:00:35;;;;;;;;;;;2.70;99.90;;;;;;5023036;28;19905;-91
2021/12/18 09:03:04;;;;;;;;;;;2.80;99.90;;;;;;5025450;28;19906;-91
2021/12/18 09:05:30;;;;;;;;;;;2.50;99.90;;;;;;5023742;28;19944;-91
2021/12/18 09:07:56;;;;;;;;;;;2.20;99.90;;;;;;5024154;28;19910;-91
2021/12/18 09:10:23;;;;;;;;;;;2.40;99.90;;;;;;5028318;28;20428;-91
2021/12/18 09:12:49;;;;;;;;;;;2.60;99.90;;;;;;5035885;28;19935;-92
2021/12/18 09:15:18;;;;;;;;;;;2.70;99.90;;;;;;5039299;28;19921;-92
2021/12/18 09:17:44;;;;;;;;;;;2.60;99.90;;;;;;5037857;28;19925;-92
2021/12/18 09:20:14;;;;;;;;;;;2.10;99.90;;;;;;5040395;28;19937;-91
2021/12/18 09:22:50;;;;;;;;;;;2.10;99.90;;;;;;5055477;28;19909;-91
2021/12/18 09:25:16;;;;;;;;;;;2.10;99.90;;;;;;5055854;28;19965;-92
2021/12/18 09:27:59;;;;;;;;;;;1.80;99.90;;;;;;5053427;28;19897;-92
2021/12/18 09:30:33;;;;;;;;;;;1.80;99.90;;;;;;5055153;28;19913;-92
2021/12/18 09:33:13;;;;;;;;;;;1.80;99.90;;;;;;5057807;28;19901;-92
2021/12/18 09:35:57;;;;;;;;;;;2.00;99.90;;;;;;5072169;28;20496;-92
2021/12/18 09:38:25;;;;;;;;;;;2.10;99.90;;;;;;5045130;28;19894;-92
2021/12/18 09:40:51;;;;;;;;;;;2.10;99.90;;;;;;5028222;28;19916;-92
2021/12/18 09:43:16;;;;;;;;;;;2.20;99.90;;;;;;5036033;28;19905;-92
2021/12/18 09:45:45;;;;;;;;;;;2.30;99.90;;;;;;5036246;28;19969;-93
2021/12/18 09:48:11;;;;;;;;;;;2.50;99.90;;;;;;5034272;28;19965;-93
2021/12/18 09:50:38;;;;;;;;;;;2.80;99.90;;;;;;5031911;28;19904;-92
2021/12/18 09:53:05;;;;;;;;;;;2.70;99.90;;;;;;5046352;28;19965;-92
2021/12/18 09:55:31;;;;;;;;;;;2.80;99.90;;;;;;5014072;28;19905;-90
2021/12/18 09:57:57;;;;;;;;;;;3.00;99.90;;;;;;5031867;28;19980;-91
2021/12/18 10:00:23;;;;;;;;;;;2.90;99.90;;;;;;5031804;28;19920;-92
2021/12/18 10:02:49;;;;;;;;;;;2.90;99.90;;;;;;5035558;28;19913;-96
2021/12/18 10:05:35;;;;;;;;;;;2.60;99.90;;;;;;5039437;28;19944;-94
2021/12/18 10:08:15;;;;;;;;;;;2.60;99.90;;;;;;5034505;28;19924;-93
2021/12/18 10:11:08;;;;;;;;;;;2.50;99.90;;;;;;5022031;28;19905;-93
2021/12/18 10:13:54;;;;;;;;;;;2.70;99.90;;;;;;5037536;28;19897;-94
2021/12/18 10:16:23;;;;;;;;;;;2.60;99.90;;;;;;5020034;28;19918;-94
2021/12/18 10:18:57;;;;;;;;;;;2.50;99.90;;;;;;5036486;28;19909;-93
2021/12/18 10:21:29;;;;;;;;;;;2.50;99.90;;;;;;5011345;28;20033;-75
2021/12/18 10:23:57;;;;;;;;;;;2.50;99.90;;;;;;4995089;28;20008;-75
2021/12/18 10:26:28;;;;;;;;;;;2.50;99.90;;;;;;5012841;28;19952;-74
2021/12/18 10:28:54;;;;;;;;;;;2.50;99.90;;;;;;5012760;28;20000;-75
2021/12/18 10:31:36;;;;;;;;;;;2.50;99.90;;;;;;5012610;28;20420;-75
2021/12/18 10:34:15;;;;;;;;;;;2.50;99.90;;;;;;5012693;28;20389;-75
2021/12/18 10:36:41;;;;;;;;;;;2.50;99.90;;;;;;5012327;28;19913;-75
2021/12/18 10:39:07;;;;;;;;;;;2.30;99.90;;;;;;5012567;28;20388;-74
2021/12/18 10:41:34;;;;;;;;;;;2.30;99.90;;;;;;5012246;28;19906;-75
2021/12/18 10:44:04;;;;;;;;;;;2.30;99.90;;;;;;5012583;28;19928;-75
2021/12/18 10:46:31;;;;;;;;;;;2.30;99.90;;;;;;5021794;28;19967;-75
2021/12/18 10:48:58;;;;;;;;;;;2.20;99.90;;;;;;5032114;28;20339;-75
2021/12/18 10:51:24;;;;;;;;;;;2.10;99.90;;;;;;5031865;28;19913;-75
2021/12/18 10:53:51;;;;;;;;;;;2.20;99.90;;;;;;5032334;28;19912;-75
2021/12/18 10:56:30;;;;;;;;;;;2.20;99.90;;;;;;5027039;28;20003;-75
2021/12/18 10:58:55;;;;;;;;;;;2.20;99.90;;;;;;5019187;28;19908;-75
2021/12/18 11:01:21;;;;;;;;;;;2.50;99.90;;;;;;5031608;28;19915;-75
2021/12/18 11:03:47;;;;;;;;;;;2.40;99.90;;;;;;5032416;28;19937;-76
2021/12/18 11:06:23;;;;;;;;;;;2.80;99.90;;;;;;5031869;28;19905;-76
2021/12/18 11:09:09;;;;;;;;;;;2.70;99.90;;;;;;5030636;28;19905;-76
2021/12/18 11:14:14;;;;;;;;;;;2.50;99.90;;;;;;5032092;28;19905;-76
2021/12/18 11:16:40;;;;;;;;;;;2.40;99.90;;;;;;5032001;28;19936;-76
2021/12/18 11:19:07;;;;;;;;;;;2.60;99.90;;;;;;5031888;28;20280;-76
2021/12/18 11:21:36;;;;;;;;;;;2.40;99.90;;;;;;5031737;28;19963;-76
2021/12/18 11:24:05;;;;;;;;;;;2.30;99.90;;;;;;5031979;28;19905;-76
2021/12/18 11:26:33;;;;;;;;;;;2.30;99.90;;;;;;5031781;28;19936;-75
2021/12/18 11:29:01;;;;;;;;;;;2.60;99.90;;;;;;5017895;28;19948;-75
2021/12/18 11:31:27;;;;;;;;;;;2.60;99.90;;;;;;5012075;28;19913;-76
2021/12/18 11:33:54;;;;;;;;;;;2.40;99.90;;;;;;5013046;28;19905;-75
2021/12/18 11:36:20;;;;;;;;;;;2.30;99.90;;;;;;5011942;28;19913;-75
2021/12/18 11:38:47;;;;;;;;;;;2.40;99.90;;;;;;5012232;28;19905;-75
2021/12/18 11:41:17;;;;;;;;;;;2.40;99.90;;;;;;5011837;28;19913;-75
2021/12/18 11:43:45;;;;;;;;;;;2.40;99.90;;;;;;5012092;28;20293;-75
2021/12/18 11:46:26;;;;;;;;;;;2.40;99.90;;;;;;5011928;28;20250;-75
2021/12/18 11:48:56;;;;;;;;;;;2.40;99.90;;;;;;5012129;28;19974;-74
2021/12/18 11:51:21;;;;;;;;;;;2.30;99.90;;;;;;5010568;28;20375;-75
2021/12/18 11:53:47;;;;;;;;;;;2.40;99.90;;;;;;5012048;28;19952;-75
2021/12/18 11:56:14;;;;;;;;;;;2.20;99.90;;;;;;4994183;28;19906;-75
2021/12/18 11:58:45;;;;;;;;;;;2.20;99.90;;;;;;5010834;28;19905;-75
2021/12/18 12:01:18;;;;;;;;;;;2.40;99.90;;;;;;5015505;28;19905;-75
2021/12/18 12:03:50;;;;;;;;;;;2.40;99.90;;;;;;5015477;28;19910;-75
2021/12/18 12:06:18;;;;;;;;;;;2.40;99.90;;;;;;5015096;28;19905;-74
2021/12/18 12:08:44;;;;;;;;;;;2.50;99.90;;;;;;5015381;28;19909;-75
2021/12/18 12:11:23;;;;;;;;;;;2.60;99.90;;;;;;5015183;28;20432;-75
2021/12/18 12:13:57;;;;;;;;;;;2.80;99.90;;;;;;5015374;28;20388;-75
2021/12/18 12:16:42;;;;;;;;;;;2.70;99.90;;;;;;5014986;28;19933;-75
2021/12/18 12:19:07;;;;;;;;;;;2.30;99.90;;;;;;5015252;28;20389;-75
2021/12/18 12:21:40;;;;;;;;;;;2.10;99.90;;;;;;5015144;28;20205;-75
2021/12/18 12:24:06;;;;;;;;;;;2.00;99.90;;;;;;5015217;28;19905;-75
2021/12/18 12:26:32;;;;;;;;;;;2.10;99.90;;;;;;5013761;28;19911;-75
2021/12/18 12:28:57;;;;;;;;;;;2.20;99.90;;;;;;5015142;28;19932;-74
2021/12/18 12:31:23;;;;;;;;;;;2.50;99.90;;;;;;5014949;28;20330;-75
2021/12/18 12:33:50;;;;;;;;;;;2.40;99.90;;;;;;5014959;28;19960;-75
2021/12/18 12:36:24;;;;;;;;;;;2.40;99.90;;;;;;5015022;28;19927;-75
2021/12/18 12:39:00;;;;;;;;;;;2.50;99.90;;;;;;5014966;28;19909;-75
2021/12/18 12:41:32;;;;;;;;;;;2.50;99.90;;;;;;5014710;28;19909;-75
2021/12/18 12:44:01;;;;;;;;;;;2.50;99.90;;;;;;5014803;28;19906;-76
2021/12/18 12:46:28;;;;;;;;;;;2.60;99.90;;;;;;5013278;28;19906;-75
2021/12/18 12:49:07;;;;;;;;;;;2.30;99.90;;;;;;5014906;28;20293;-76
2021/12/18 12:51:55;;;;;;;;;;;2.20;99.90;;;;;;5014134;28;19964;-75
2021/12/18 12:54:39;;;;;;;;;;;2.10;99.90;;;;;;5013433;28;19905;-75
2021/12/18 12:57:23;;;;;;;;;;;2.20;99.90;;;;;;5034505;23;19947;-74
2021/12/18 12:59:53;;;;;;;;;;;2.50;99.90;;;;;;5053365;28;19913;-75
2021/12/18 13:02:19;;;;;;;;;;;2.60;99.90;;;;;;5053011;28;19905;-75
2021/12/18 13:04:44;;;;;;;;;;;2.80;99.90;;;;;;5052924;28;19912;-75
2021/12/18 13:07:10;;;;;;;;;;;2.80;99.90;;;;;;5054027;28;20287;-74
2021/12/18 13:09:43;;;;;;;;;;;2.80;99.90;;;;;;5052571;28;20439;-75
2021/12/18 13:12:09;;;;;;;;;;;2.60;99.90;;;;;;5052572;28;19909;-75
2021/12/18 13:14:36;;;;;;;;;;;2.60;99.90;;;;;;5036168;28;19912;-75
2021/12/18 13:17:02;;;;;;;;;;;2.50;99.90;;;;;;5052537;28;19944;-75
2021/12/18 13:19:29;;;;;;;;;;;2.60;99.90;;;;;;5052653;28;20284;-75
2021/12/18 13:21:55;;;;;;;;;;;2.70;99.90;;;;;;5053720;28;19913;-75
2021/12/18 13:24:21;;;;;;;;;;;2.60;99.90;;;;;;5035857;28;19905;-75
2021/12/18 13:26:47;;;;;;;;;;;2.70;99.90;;;;;;5052465;28;19908;-75
2021/12/18 13:29:17;;;;;;;;;;;2.70;99.90;;;;;;5052279;28;19909;-75
2021/12/18 13:31:49;;;;;;;;;;;2.70;99.90;;;;;;5053573;28;19916;-75
2021/12/18 13:34:16;;;;;;;;;;;2.70;99.90;;;;;;5052301;28;19955;-75
2021/12/18 13:36:46;;;;;;;;;;;2.50;99.90;;;;;;5052350;28;19905;-75
2021/12/18 13:39:14;;;;;;;;;;;2.50;99.90;;;;;;5035514;28;20037;-75
2021/12/18 13:41:54;;;;;;;;;;;2.50;99.90;;;;;;5053412;28;19928;-75
2021/12/18 13:44:20;;;;;;;;;;;2.60;99.90;;;;;;5053387;28;19904;-75
2021/12/18 13:46:45;;;;;;;;;;;2.70;99.90;;;;;;5051909;28;19935;-75
2021/12/18 13:49:11;;;;;;;;;;;2.90;99.90;;;;;;5053449;28;20000;-75
2021/12/18 13:51:36;;;;;;;;;;;2.70;99.90;;;;;;5033423;28;20368;-76
2021/12/18 13:54:03;;;;;;;;;;;2.70;99.90;;;;;;5047150;28;19909;-75
2021/12/18 13:56:30;;;;;;;;;;;2.90;99.90;;;;;;5051820;28;19905;-75
2021/12/18 13:58:56;;;;;;;;;;;2.90;99.90;;;;;;5053096;28;19923;-75
2021/12/18 14:01:26;;;;;;;;;;;3.00;99.90;;;;;;5053107;28;20000;-73
2021/12/18 14:03:53;;;;;;;;;;;2.90;99.90;;;;;;5052021;28;19912;-73
2021/12/18 14:06:22;;;;;;;;;;;2.80;99.90;;;;;;5052461;28;19984;-73
2021/12/18 14:08:55;;;;;;;;;;;3.00;99.90;;;;;;5053104;28;19905;-74
2021/12/18 14:11:27;;;;;;;;;;;3.00;99.90;;;;;;5055598;28;19962;-73
2021/12/18 14:13:57;;;;;;;;;;;2.90;99.90;;;;;;5068572;28;19908;-73
2021/12/18 14:16:23;;;;;;;;;;;2.80;99.90;;;;;;5051294;28;19908;-73
2021/12/18 14:19:02;;;;;;;;;;;2.90;99.90;;;;;;5051603;28;19986;-73
2021/12/18 14:21:49;;;;;;;;;;;2.70;99.90;;;;;;5034293;28;19904;-74
2021/12/18 14:24:15;;;;;;;;;;;2.60;99.90;;;;;;5052617;28;20364;-74
2021/12/18 14:26:53;;;;;;;;;;;2.70;99.90;;;;;;5052290;28;19957;-73
2021/12/18 14:29:18;;;;;;;;;;;2.80;99.90;;;;;;5052796;28;19949;-74
2021/12/18 14:31:46;;;;;;;;;;;2.80;99.90;;;;;;5034433;28;20003;-74
2021/12/18 14:34:11;;;;;;;;;;;2.90;99.90;;;;;;5051419;28;19995;-74
2021/12/18 14:36:47;;;;;;;;;;;2.90;99.90;;;;;;5034308;28;19947;-74
2021/12/18 14:39:20;;;;;;;;;;;3.00;99.90;;;;;;5052561;28;19913;-74
2021/12/18 14:41:55;;;;;;;;;;;2.90;99.90;;;;;;5052708;28;19904;-74
2021/12/18 14:44:21;;;;;;;;;;;3.10;99.90;;;;;;5052423;28;20352;-74
2021/12/18 14:46:47;;;;;;;;;;;2.90;99.90;;;;;;5052276;28;19911;-74
2021/12/18 14:49:13;;;;;;;;;;;2.60;99.90;;;;;;5051058;28;19916;-74
2021/12/18 14:51:38;;;;;;;;;;;2.50;99.90;;;;;;5034533;28;19990;-74
2021/12/18 14:54:05;;;;;;;;;;;2.50;99.90;;;;;;5051147;28;20019;-74
2021/12/18 14:56:30;;;;;;;;;;;2.50;99.90;;;;;;5050844;28;19943;-74
2021/12/18 14:58:56;;;;;;;;;;;2.50;99.90;;;;;;5050837;28;20441;-73
2021/12/18 15:01:23;;;;;;;;;;;2.70;99.90;;;;;;5052213;28;20352;-74
2021/12/18 15:03:48;;;;;;;;;;;2.80;99.90;;;;;;5050982;28;19904;-73
2021/12/18 15:06:17;;;;;;;;;;;2.90;99.90;;;;;;5051121;28;19911;-74
2021/12/18 15:08:57;;;;;;;;;;;3.00;99.90;;;;;;5050870;28;19957;-73
2021/12/18 15:11:24;;;;;;;;;;;2.90;99.90;;;;;;5052041;28;19908;-74
2021/12/18 15:13:50;;;;;;;;;;;3.00;99.90;;;;;;5052096;28;19911;-74
2021/12/18 15:16:24;;;;;;;;;;;3.00;99.90;;;;;;5033776;28;19904;-74
2021/12/18 15:18:50;;;;;;;;;;;2.90;99.90;;;;;;5050925;28;19904;-74
2021/12/18 15:21:16;;;;;;;;;;;2.70;99.90;;;;;;5051847;28;19909;-74
2021/12/18 15:23:42;;;;;;;;;;;2.70;99.90;;;;;;5052107;28;19905;-74
2021/12/18 15:26:08;;;;;;;;;;;2.50;99.90;;;;;;5051849;28;19928;-74
2021/12/18 15:28:34;;;;;;;;;;;2.50;99.90;;;;;;5050504;28;19904;-73
2021/12/18 15:31:00;;;;;;;;;;;2.50;99.90;;;;;;5050302;28;19908;-74
2021/12/18 15:33:25;;;;;;;;;;;2.60;99.90;;;;;;5052283;28;20401;-73
2021/12/18 15:35:51;;;;;;;;;;;2.80;99.90;;;;;;5054331;28;19905;-73
2021/12/18 15:38:17;;;;;;;;;;;2.70;99.90;;;;;;5054247;28;19950;-73
2021/12/18 15:40:43;;;;;;;;;;;2.70;99.90;;;;;;5055391;28;19958;-73
2021/12/18 15:43:10;;;;;;;;;;;2.90;99.90;;;;;;5055893;28;19901;-75
2021/12/18 15:45:36;;;;;;;;;;;2.60;99.90;;;;;;5055549;28;19987;-75
2021/12/18 15:48:02;;;;;;;;;;;2.40;99.90;;;;;;5055766;28;19912;-75
2021/12/18 15:50:28;;;;;;;;;;;2.40;99.90;;;;;;5055375;28;20352;-72
2021/12/18 15:52:53;;;;;;;;;;;2.30;99.90;;;;;;5055515;28;19905;-72
2021/12/18 15:55:20;;;;;;;;;;;2.30;99.90;;;;;;5037471;28;19911;-72
2021/12/18 15:57:46;;;;;;;;;;;2.60;99.90;;;;;;5055481;28;19971;-72
2021/12/18 16:00:12;;;;;;;;;;;2.60;99.90;;;;;;5037475;28;19954;-73
2021/12/18 16:02:37;;;;;;;;;;;2.70;99.90;;;;;;5053912;28;19962;-73